sensor_id;sensor_type;location;lat;lon;timestamp;temperature;humidity
6110;DHT22;3085;49.444;11.054;2024-02-21T00:02:19;8.20;99.90
6110;DHT22;3085;49.444;11.054;2024-02-21T00:04:45;8.20;99.90
6110;DHT22;3085;49.444;11.054;2024-02-21T00:07:13;7.90;99.90
6110;DHT22;3085;49.444;11.054;2024-02-21T00:09:40;8.30;99.90
6110;DHT22;3085;49.444;11.054;2024-02-21T00:12:07;8.30;99.90
6110;DHT22;3085;49.444;11.054;2024-02-21T00:14:34;8.30;99.90
6110;DHT22;3085;49.444;11.054;2024-02-21T00:17:00;8.30;99.90
6110;DHT22;3085;49.444;11.054;2024-02-21T00:19:27;8.30;99.90
6110;DHT22;3085;49.444;11.054;2024-02-21T00:21:54;8.20;99.90
6110;DHT22;3085;49.444;11.054;2024-02-21T00:24:22;8.30;99.90
6110;DHT22;3085;49.444;11.054;2024-02-21T00:26:48;8.20;99.90
6110;DHT22;3085;49.444;11.054;2024-02-21T00:29:15;8.20;99.90
6110;DHT22;3085;49.444;11.054;2024-02-21T00:31:41;8.10;99.90
6110;DHT22;3085;49.444;11.054;2024-02-21T00:34:10;8.20;99.90
6110;DHT22;3085;49.444;11.054;2024-02-21T00:36:38;8.20;99.90
6110;DHT22;3085;49.444;11.054;2024-02-21T00:39:04;8.20;99.90
6110;DHT22;3085;49.444;11.054;2024-02-21T00:41:33;8.20;99.90
6110;DHT22;3085;49.444;11.054;2024-02-21T00:43:59;8.20;99.90
6110;DHT22;3085;49.444;11.054;2024-02-21T00:46:26;8.10;99.90
6110;DHT22;3085;49.444;11.054;2024-02-21T00:48:53;8.10;99.90
6110;DHT22;3085;49.444;11.054;2024-02-21T00:51:19;8.00;99.90
6110;DHT22;3085;49.444;11.054;2024-02-21T00:53:46;8.00;99.90
6110;DHT22;3085;49.444;11.054;2024-02-21T00:56:13;8.10;99.90
6110;DHT22;3085;49.444;11.054;2024-02-21T00:58:41;8.10;99.90
6110;DHT22;3085;49.444;11.054;2024-02-21T01:01:07;8.00;99.90
6110;DHT22;3085;49.444;11.054;2024-02-21T01:03:34;8.00;99.90
6110;DHT22;3085;49.444;11.054;2024-02-21T01:06:01;8.00;99.90
6110;DHT22;3085;49.444;11.054;2024-02-21T01:08:27;8.00;99.90
6110;DHT22;3085;49.444;11.054;2024-02-21T01:10:54;8.00;99.90
6110;DHT22;3085;49.444;11.054;2024-02-21T01:13:20;7.90;99.90
6110;DHT22;3085;49.444;11.054;2024-02-21T01:15:48;7.90;99.90
6110;DHT22;3085;49.444;11.054;2024-02-21T01:18:15;7.80;99.90
6110;DHT22;3085;49.444;11.054;2024-02-21T01:20:42;7.80;99.90
6110;DHT22;3085;49.444;11.054;2024-02-21T01:23:08;7.80;99.90
6110;DHT22;3085;49.444;11.054;2024-02-21T01:25:35;7.90;99.90
6110;DHT22;3085;49.444;11.054;2024-02-21T01:28:02;7.90;99.90
6110;DHT22;3085;49.444;11.054;2024-02-21T01:30:28;7.90;99.90
6110;DHT22;3085;49.444;11.054;2024-02-21T01:32:56;7.80;99.90
6110;DHT22;3085;49.444;11.054;2024-02-21T01:35:23;7.90;99.90
6110;DHT22;3085;49.444;11.054;2024-02-21T01:37:49;7.90;99.90
6110;DHT22;3085;49.444;11.054;2024-02-21T01:40:17;7.90;99.90
6110;DHT22;3085;49.444;11.054;2024-02-21T01:42:44;7.90;99.90
6110;DHT22;3085;49.444;11.054;2024-02-21T01:45:10;7.80;99.90
6110;DHT22;3085;49.444;11.054;2024-02-21T01:47:37;7.90;99.90
6110;DHT22;3085;49.444;11.054;2024-02-21T01:50:06;7.90;99.90
6110;DHT22;3085;49.444;11.054;2024-02-21T01:52:34;7.90;99.90
6110;DHT22;3085;49.444;11.054;2024-02-21T01:55:01;7.90;99.90
6110;DHT22;3085;49.444;11.054;2024-02-21T01:57:28;7.90;99.90
6110;DHT22;3085;49.444;11.054;2024-02-21T01:59:55;7.90;99.90
6110;DHT22;3085;49.444;11.054;2024-02-21T02:02:21;8.00;99.90
6110;DHT22;3085;49.444;11.054;2024-02-21T02:04:49;8.00;99.90
6110;DHT22;3085;49.444;11.054;2024-02-21T02:07:17;8.00;99.90
6110;DHT22;3085;49.444;11.054;2024-02-21T02:09:43;7.90;99.90
6110;DHT22;3085;49.444;11.054;2024-02-21T02:12:10;7.80;99.90
6110;DHT22;3085;49.444;11.054;2024-02-21T02:14:37;7.90;99.90
6110;DHT22;3085;49.444;11.054;2024-02-21T02:17:04;7.90;99.90
6110;DHT22;3085;49.444;11.054;2024-02-21T02:19:31;8.00;99.90
6110;DHT22;3085;49.444;11.054;2024-02-21T02:22:03;8.00;99.90
6110;DHT22;3085;49.444;11.054;2024-02-21T02:24:33;8.00;99.90
6110;DHT22;3085;49.444;11.054;2024-02-21T02:27:00;8.00;99.90
6110;DHT22;3085;49.444;11.054;2024-02-21T02:29:27;7.90;99.90
6110;DHT22;3085;49.444;11.054;2024-02-21T02:31:53;7.90;99.90
6110;DHT22;3085;49.444;11.054;2024-02-21T02:34:20;8.00;99.90
6110;DHT22;3085;49.444;11.054;2024-02-21T02:36:47;8.00;99.90
6110;DHT22;3085;49.444;11.054;2024-02-21T02:39:14;8.00;99.90
6110;DHT22;3085;49.444;11.054;2024-02-21T02:41:42;8.00;99.90
6110;DHT22;3085;49.444;11.054;2024-02-21T02:44:09;8.00;99.90
6110;DHT22;3085;49.444;11.054;2024-02-21T02:46:36;7.90;99.90
6110;DHT22;3085;49.444;11.054;2024-02-21T02:49:02;7.90;99.90
6110;DHT22;3085;49.444;11.054;2024-02-21T02:51:29;7.90;99.90
6110;DHT22;3085;49.444;11.054;2024-02-21T02:53:55;7.80;99.90
6110;DHT22;3085;49.444;11.054;2024-02-21T02:56:22;7.90;99.90
6110;DHT22;3085;49.444;11.054;2024-02-21T02:58:50;7.90;99.90
6110;DHT22;3085;49.444;11.054;2024-02-21T03:01:17;7.90;99.90
6110;DHT22;3085;49.444;11.054;2024-02-21T03:03:43;7.90;99.90
6110;DHT22;3085;49.444;11.054;2024-02-21T03:06:11;7.90;99.90
6110;DHT22;3085;49.444;11.054;2024-02-21T03:08:37;7.90;99.90
6110;DHT22;3085;49.444;11.054;2024-02-21T03:11:05;8.00;99.90
6110;DHT22;3085;49.444;11.054;2024-02-21T03:13:32;8.00;99.90
6110;DHT22;3085;49.444;11.054;2024-02-21T03:16:00;8.00;99.90
6110;DHT22;3085;49.444;11.054;2024-02-21T03:18:26;8.00;99.90
6110;DHT22;3085;49.444;11.054;2024-02-21T03:20:53;8.10;99.90
6110;DHT22;3085;49.444;11.054;2024-02-21T03:23:20;8.10;99.90
6110;DHT22;3085;49.444;11.054;2024-02-21T03:25:46;8.10;99.90
6110;DHT22;3085;49.444;11.054;2024-02-21T03:28:13;8.10;99.90
6110;DHT22;3085;49.444;11.054;2024-02-21T03:30:39;8.10;99.90
6110;DHT22;3085;49.444;11.054;2024-02-21T03:33:07;8.10;99.90
6110;DHT22;3085;49.444;11.054;2024-02-21T03:35:34;8.20;99.90
6110;DHT22;3085;49.444;11.054;2024-02-21T03:38:01;8.10;99.90
6110;DHT22;3085;49.444;11.054;2024-02-21T03:40:27;8.20;99.90
6110;DHT22;3085;49.444;11.054;2024-02-21T03:42:54;8.30;99.90
6110;DHT22;3085;49.444;11.054;2024-02-21T03:45:21;8.20;99.90
6110;DHT22;3085;49.444;11.054;2024-02-21T03:47:47;8.20;99.90
6110;DHT22;3085;49.444;11.054;2024-02-21T03:50:15;8.20;99.90
6110;DHT22;3085;49.444;11.054;2024-02-21T03:52:42;8.10;99.90
6110;DHT22;3085;49.444;11.054;2024-02-21T03:55:09;8.10;99.90
6110;DHT22;3085;49.444;11.054;2024-02-21T03:57:36;8.00;99.90
6110;DHT22;3085;49.444;11.054;2024-02-21T04:00:03;7.90;99.90
6110;DHT22;3085;49.444;11.054;2024-02-21T04:02:31;7.90;99.90
6110;DHT22;3085;49.444;11.054;2024-02-21T04:04:57;7.90;99.90
6110;DHT22;3085;49.444;11.054;2024-02-21T04:07:26;7.90;99.90
6110;DHT22;3085;49.444;11.054;2024-02-21T04:09:53;7.90;99.90
6110;DHT22;3085;49.444;11.054;2024-02-21T04:12:19;7.90;99.90
6110;DHT22;3085;49.444;11.054;2024-02-21T04:14:46;7.90;99.90
6110;DHT22;3085;49.444;11.054;2024-02-21T04:17:13;7.90;99.90
6110;DHT22;3085;49.444;11.054;2024-02-21T04:19:39;7.90;99.90
6110;DHT22;3085;49.444;11.054;2024-02-21T04:22:06;8.00;99.90
6110;DHT22;3085;49.444;11.054;2024-02-21T04:24:34;7.90;99.90
6110;DHT22;3085;49.444;11.054;2024-02-21T04:27:01;8.00;99.90
6110;DHT22;3085;49.444;11.054;2024-02-21T04:29:28;8.00;99.90
6110;DHT22;3085;49.444;11.054;2024-02-21T04:31:54;8.10;99.90
6110;DHT22;3085;49.444;11.054;2024-02-21T04:34:21;8.10;99.90
6110;DHT22;3085;49.444;11.054;2024-02-21T04:36:48;8.10;99.90
6110;DHT22;3085;49.444;11.054;2024-02-21T04:39:14;8.10;99.90
6110;DHT22;3085;49.444;11.054;2024-02-21T04:41:42;8.10;99.90
6110;DHT22;3085;49.444;11.054;2024-02-21T04:44:09;8.10;99.90
6110;DHT22;3085;49.444;11.054;2024-02-21T04:46:36;8.10;99.90
6110;DHT22;3085;49.444;11.054;2024-02-21T04:49:02;8.00;99.90
6110;DHT22;3085;49.444;11.054;2024-02-21T04:51:29;8.00;99.90
6110;DHT22;3085;49.444;11.054;2024-02-21T04:53:56;8.00;99.90
6110;DHT22;3085;49.444;11.054;2024-02-21T04:56:22;8.00;99.90
6110;DHT22;3085;49.444;11.054;2024-02-21T04:58:51;8.00;99.90
6110;DHT22;3085;49.444;11.054;2024-02-21T05:01:18;7.90;99.90
6110;DHT22;3085;49.444;11.054;2024-02-21T05:03:45;7.80;99.90
6110;DHT22;3085;49.444;11.054;2024-02-21T05:06:11;7.80;99.90
6110;DHT22;3085;49.444;11.054;2024-02-21T05:08:38;7.90;99.90
6110;DHT22;3085;49.444;11.054;2024-02-21T05:11:05;7.90;99.90
6110;DHT22;3085;49.444;11.054;2024-02-21T05:13:32;7.90;99.90
6110;DHT22;3085;49.444;11.054;2024-02-21T05:16:00;7.90;99.90
6110;DHT22;3085;49.444;11.054;2024-02-21T05:18:28;7.80;99.90
6110;DHT22;3085;49.444;11.054;2024-02-21T05:20:55;7.80;99.90
6110;DHT22;3085;49.444;11.054;2024-02-21T05:23:21;7.80;99.90
6110;DHT22;3085;49.444;11.054;2024-02-21T05:25:48;7.90;99.90
6110;DHT22;3085;49.444;11.054;2024-02-21T05:28:15;7.70;99.90
6110;DHT22;3085;49.444;11.054;2024-02-21T05:30:41;7.80;99.90
6110;DHT22;3085;49.444;11.054;2024-02-21T05:33:10;7.70;99.90
6110;DHT22;3085;49.444;11.054;2024-02-21T05:35:36;7.70;99.90
6110;DHT22;3085;49.444;11.054;2024-02-21T05:38:03;7.70;99.90
6110;DHT22;3085;49.444;11.054;2024-02-21T05:40:36;7.70;99.90
6110;DHT22;3085;49.444;11.054;2024-02-21T05:43:03;7.70;99.90
6110;DHT22;3085;49.444;11.054;2024-02-21T05:45:30;7.70;99.90
6110;DHT22;3085;49.444;11.054;2024-02-21T05:47:57;7.70;99.90
6110;DHT22;3085;49.444;11.054;2024-02-21T05:50:25;7.70;99.90
6110;DHT22;3085;49.444;11.054;2024-02-21T05:52:52;7.70;99.90
6110;DHT22;3085;49.444;11.054;2024-02-21T05:55:19;7.70;99.90
6110;DHT22;3085;49.444;11.054;2024-02-21T05:57:45;7.70;99.90
6110;DHT22;3085;49.444;11.054;2024-02-21T06:00:13;7.80;99.90
6110;DHT22;3085;49.444;11.054;2024-02-21T06:02:40;7.80;99.90
6110;DHT22;3085;49.444;11.054;2024-02-21T06:05:08;7.80;99.90
6110;DHT22;3085;49.444;11.054;2024-02-21T06:07:36;7.80;99.90
6110;DHT22;3085;49.444;11.054;2024-02-21T06:10:03;7.80;99.90
6110;DHT22;3085;49.444;11.054;2024-02-21T06:12:29;7.40;99.90
6110;DHT22;3085;49.444;11.054;2024-02-21T06:14:56;7.80;99.90
6110;DHT22;3085;49.444;11.054;2024-02-21T06:17:23;7.70;99.90
6110;DHT22;3085;49.444;11.054;2024-02-21T06:19:49;7.80;99.90
6110;DHT22;3085;49.444;11.054;2024-02-21T06:22:16;7.80;99.90
6110;DHT22;3085;49.444;11.054;2024-02-21T06:24:44;7.80;99.90
6110;DHT22;3085;49.444;11.054;2024-02-21T06:27:11;7.80;99.90
6110;DHT22;3085;49.444;11.054;2024-02-21T06:29:40;7.70;99.90
6110;DHT22;3085;49.444;11.054;2024-02-21T06:32:07;7.70;99.90
6110;DHT22;3085;49.444;11.054;2024-02-21T06:34:33;7.70;99.90
6110;DHT22;3085;49.444;11.054;2024-02-21T06:37:00;7.70;99.90
6110;DHT22;3085;49.444;11.054;2024-02-21T06:39:27;7.70;99.90
6110;DHT22;3085;49.444;11.054;2024-02-21T06:41:55;7.70;99.90
6110;DHT22;3085;49.444;11.054;2024-02-21T06:44:22;7.70;99.90
6110;DHT22;3085;49.444;11.054;2024-02-21T06:46:49;7.70;99.90
6110;DHT22;3085;49.444;11.054;2024-02-21T06:49:16;7.80;99.90
6110;DHT22;3085;49.444;11.054;2024-02-21T06:51:42;7.70;99.90
6110;DHT22;3085;49.444;11.054;2024-02-21T06:54:09;7.80;99.90
6110;DHT22;3085;49.444;11.054;2024-02-21T06:56:37;7.70;99.90
6110;DHT22;3085;49.444;11.054;2024-02-21T06:59:05;7.80;99.90
6110;DHT22;3085;49.444;11.054;2024-02-21T07:01:31;7.80;99.90
6110;DHT22;3085;49.444;11.054;2024-02-21T07:03:58;7.90;99.90
6110;DHT22;3085;49.444;11.054;2024-02-21T07:06:25;7.90;99.90
6110;DHT22;3085;49.444;11.054;2024-02-21T07:08:51;8.00;99.90
6110;DHT22;3085;49.444;11.054;2024-02-21T07:11:18;8.00;99.90
6110;DHT22;3085;49.444;11.054;2024-02-21T07:13:45;8.00;99.90
6110;DHT22;3085;49.444;11.054;2024-02-21T07:16:13;7.90;99.90
6110;DHT22;3085;49.444;11.054;2024-02-21T07:18:40;7.80;99.90
6110;DHT22;3085;49.444;11.054;2024-02-21T07:21:06;7.80;99.90
6110;DHT22;3085;49.444;11.054;2024-02-21T07:23:34;7.80;99.90
6110;DHT22;3085;49.444;11.054;2024-02-21T07:26:00;7.70;99.90
6110;DHT22;3085;49.444;11.054;2024-02-21T07:28:27;7.70;99.90
6110;DHT22;3085;49.444;11.054;2024-02-21T07:30:54;7.80;99.90
6110;DHT22;3085;49.444;11.054;2024-02-21T07:33:21;7.80;99.90
6110;DHT22;3085;49.444;11.054;2024-02-21T07:35:48;7.80;99.90
6110;DHT22;3085;49.444;11.054;2024-02-21T07:38:15;7.80;99.90
6110;DHT22;3085;49.444;11.054;2024-02-21T07:40:44;7.80;99.90
6110;DHT22;3085;49.444;11.054;2024-02-21T07:43:11;7.80;99.90
6110;DHT22;3085;49.444;11.054;2024-02-21T07:45:37;7.80;99.90
6110;DHT22;3085;49.444;11.054;2024-02-21T07:48:05;7.80;99.90
6110;DHT22;3085;49.444;11.054;2024-02-21T07:50:33;7.90;99.90
6110;DHT22;3085;49.444;11.054;2024-02-21T07:53:00;8.00;99.90
6110;DHT22;3085;49.444;11.054;2024-02-21T07:55:26;8.00;99.90
6110;DHT22;3085;49.444;11.054;2024-02-21T07:57:53;7.90;99.90
6110;DHT22;3085;49.444;11.054;2024-02-21T08:00:20;7.80;99.90
6110;DHT22;3085;49.444;11.054;2024-02-21T08:02:48;8.00;99.90
6110;DHT22;3085;49.444;11.054;2024-02-21T08:05:15;8.00;99.90
6110;DHT22;3085;49.444;11.054;2024-02-21T08:07:43;8.10;99.90
6110;DHT22;3085;49.444;11.054;2024-02-21T08:10:10;8.00;99.90
6110;DHT22;3085;49.444;11.054;2024-02-21T08:12:36;8.00;99.90
6110;DHT22;3085;49.444;11.054;2024-02-21T08:15:04;8.00;99.90
6110;DHT22;3085;49.444;11.054;2024-02-21T08:17:33;8.10;99.90
6110;DHT22;3085;49.444;11.054;2024-02-21T08:20:00;8.10;99.90
6110;DHT22;3085;49.444;11.054;2024-02-21T08:22:26;8.10;99.90
6110;DHT22;3085;49.444;11.054;2024-02-21T08:24:55;8.20;99.90
6110;DHT22;3085;49.444;11.054;2024-02-21T08:27:21;8.50;99.90
6110;DHT22;3085;49.444;11.054;2024-02-21T08:29:48;8.40;99.90
6110;DHT22;3085;49.444;11.054;2024-02-21T08:32:15;8.40;99.90
6110;DHT22;3085;49.444;11.054;2024-02-21T08:34:41;8.40;99.90
6110;DHT22;3085;49.444;11.054;2024-02-21T08:37:08;8.50;99.90
6110;DHT22;3085;49.444;11.054;2024-02-21T08:39:36;8.50;99.90
6110;DHT22;3085;49.444;11.054;2024-02-21T08:42:04;8.60;99.90
6110;DHT22;3085;49.444;11.054;2024-02-21T08:44:31;8.60;99.90
6110;DHT22;3085;49.444;11.054;2024-02-21T08:46:58;8.70;99.90
6110;DHT22;3085;49.444;11.054;2024-02-21T08:49:25;8.70;99.90
6110;DHT22;3085;49.444;11.054;2024-02-21T08:51:53;8.60;99.90
6110;DHT22;3085;49.444;11.054;2024-02-21T08:54:20;8.60;99.90
6110;DHT22;3085;49.444;11.054;2024-02-21T08:56:47;8.60;99.90
6110;DHT22;3085;49.444;11.054;2024-02-21T08:59:15;8.80;99.90
6110;DHT22;3085;49.444;11.054;2024-02-21T09:01:42;8.80;99.90
6110;DHT22;3085;49.444;11.054;2024-02-21T09:04:08;8.80;99.90
6110;DHT22;3085;49.444;11.054;2024-02-21T09:06:35;8.90;99.90
6110;DHT22;3085;49.444;11.054;2024-02-21T09:09:04;8.90;99.90
6110;DHT22;3085;49.444;11.054;2024-02-21T09:11:33;8.90;99.90
6110;DHT22;3085;49.444;11.054;2024-02-21T09:14:00;9.00;99.90
6110;DHT22;3085;49.444;11.054;2024-02-21T09:16:30;9.10;99.90
6110;DHT22;3085;49.444;11.054;2024-02-21T09:18:57;9.20;99.90
6110;DHT22;3085;49.444;11.054;2024-02-21T09:21:24;9.30;99.90
6110;DHT22;3085;49.444;11.054;2024-02-21T09:23:50;9.30;99.90
6110;DHT22;3085;49.444;11.054;2024-02-21T09:26:17;9.40;99.90
6110;DHT22;3085;49.444;11.054;2024-02-21T09:28:44;9.40;99.90
6110;DHT22;3085;49.444;11.054;2024-02-21T09:31:10;9.50;99.90
6110;DHT22;3085;49.444;11.054;2024-02-21T09:33:39;9.60;99.90
6110;DHT22;3085;49.444;11.054;2024-02-21T09:36:06;9.60;99.90
6110;DHT22;3085;49.444;11.054;2024-02-21T09:38:32;9.60;99.90
6110;DHT22;3085;49.444;11.054;2024-02-21T09:41:01;9.50;99.90
6110;DHT22;3085;49.444;11.054;2024-02-21T09:43:31;9.50;99.90
6110;DHT22;3085;49.444;11.054;2024-02-21T09:45:59;9.50;99.90
6110;DHT22;3085;49.444;11.054;2024-02-21T09:48:34;9.60;99.90
6110;DHT22;3085;49.444;11.054;2024-02-21T09:51:05;9.50;99.90
6110;DHT22;3085;49.444;11.054;2024-02-21T09:53:34;9.50;99.90
6110;DHT22;3085;49.444;11.054;2024-02-21T09:56:04;9.50;99.90
6110;DHT22;3085;49.444;11.054;2024-02-21T09:58:31;9.60;99.90
6110;DHT22;3085;49.444;11.054;2024-02-21T10:00:59;9.60;99.90
6110;DHT22;3085;49.444;11.054;2024-02-21T10:03:25;9.60;99.90
6110;DHT22;3085;49.444;11.054;2024-02-21T10:05:52;9.70;99.90
6110;DHT22;3085;49.444;11.054;2024-02-21T10:08:21;9.60;99.90
6110;DHT22;3085;49.444;11.054;2024-02-21T10:10:47;9.70;99.90
6110;DHT22;3085;49.444;11.054;2024-02-21T10:13:28;9.80;99.90
6110;DHT22;3085;49.444;11.054;2024-02-21T10:16:05;9.80;99.90
6110;DHT22;3085;49.444;11.054;2024-02-21T10:18:32;9.90;99.90
6110;DHT22;3085;49.444;11.054;2024-02-21T10:21:03;10.00;99.90
6110;DHT22;3085;49.444;11.054;2024-02-21T10:23:41;10.10;99.90
6110;DHT22;3085;49.444;11.054;2024-02-21T10:26:08;10.10;99.90
6110;DHT22;3085;49.444;11.054;2024-02-21T10:28:34;10.20;99.90
6110;DHT22;3085;49.444;11.054;2024-02-21T10:31:01;10.20;99.90
6110;DHT22;3085;49.444;11.054;2024-02-21T10:33:28;10.20;99.90
6110;DHT22;3085;49.444;11.054;2024-02-21T10:36:06;10.30;99.90
6110;DHT22;3085;49.444;11.054;2024-02-21T10:38:36;10.30;99.90
6110;DHT22;3085;49.444;11.054;2024-02-21T10:41:04;10.30;99.90
6110;DHT22;3085;49.444;11.054;2024-02-21T10:43:37;10.30;99.90
6110;DHT22;3085;49.444;11.054;2024-02-21T10:46:05;10.30;99.90
6110;DHT22;3085;49.444;11.054;2024-02-21T10:48:43;10.50;99.90
6110;DHT22;3085;49.444;11.054;2024-02-21T10:51:15;10.30;99.90
6110;DHT22;3085;49.444;11.054;2024-02-21T10:53:57;10.30;99.90
6110;DHT22;3085;49.444;11.054;2024-02-21T10:56:30;10.40;99.90
6110;DHT22;3085;49.444;11.054;2024-02-21T10:59:01;10.50;99.90
6110;DHT22;3085;49.444;11.054;2024-02-21T11:01:28;10.60;99.90
6110;DHT22;3085;49.444;11.054;2024-02-21T11:03:59;10.50;99.90
6110;DHT22;3085;49.444;11.054;2024-02-21T11:06:28;10.50;99.90
6110;DHT22;3085;49.444;11.054;2024-02-21T11:09:04;10.50;99.90
6110;DHT22;3085;49.444;11.054;2024-02-21T11:11:33;10.50;99.90
6110;DHT22;3085;49.444;11.054;2024-02-21T11:14:07;10.50;99.90
6110;DHT22;3085;49.444;11.054;2024-02-21T11:16:38;10.50;99.90
6110;DHT22;3085;49.444;11.054;2024-02-21T11:19:06;10.50;99.90
6110;DHT22;3085;49.444;11.054;2024-02-21T11:21:33;10.50;99.90
6110;DHT22;3085;49.444;11.054;2024-02-21T11:24:02;10.50;99.90
6110;DHT22;3085;49.444;11.054;2024-02-21T11:26:30;10.60;99.90
6110;DHT22;3085;49.444;11.054;2024-02-21T11:28:58;10.60;99.90
6110;DHT22;3085;49.444;11.054;2024-02-21T11:31:25;10.70;99.90
6110;DHT22;3085;49.444;11.054;2024-02-21T11:33:53;10.70;99.90
6110;DHT22;3085;49.444;11.054;2024-02-21T11:36:25;10.80;99.90
6110;DHT22;3085;49.444;11.054;2024-02-21T11:38:52;10.90;99.90
6110;DHT22;3085;49.444;11.054;2024-02-21T11:41:20;10.80;99.90
6110;DHT22;3085;49.444;11.054;2024-02-21T11:43:48;10.90;99.90
6110;DHT22;3085;49.444;11.054;2024-02-21T11:46:16;11.00;99.90
6110;DHT22;3085;49.444;11.054;2024-02-21T11:48:43;11.00;99.90
6110;DHT22;3085;49.444;11.054;2024-02-21T11:51:21;11.00;99.90
6110;DHT22;3085;49.444;11.054;2024-02-21T11:53:48;11.10;99.90
6110;DHT22;3085;49.444;11.054;2024-02-21T11:56:15;11.10;99.90
6110;DHT22;3085;49.444;11.054;2024-02-21T11:58:43;11.20;99.90
6110;DHT22;3085;49.444;11.054;2024-02-21T12:01:09;11.20;99.90
6110;DHT22;3085;49.444;11.054;2024-02-21T12:03:36;11.20;99.90
6110;DHT22;3085;49.444;11.054;2024-02-21T12:06:03;11.20;99.90
6110;DHT22;3085;49.444;11.054;2024-02-21T12:08:40;11.30;99.90
6110;DHT22;3085;49.444;11.054;2024-02-21T12:11:16;11.30;99.90
6110;DHT22;3085;49.444;11.054;2024-02-21T12:13:45;11.30;99.90
6110;DHT22;3085;49.444;11.054;2024-02-21T12:16:15;11.20;99.90
6110;DHT22;3085;49.444;11.054;2024-02-21T12:18:42;11.20;99.90
6110;DHT22;3085;49.444;11.054;2024-02-21T12:21:09;11.30;99.90
6110;DHT22;3085;49.444;11.054;2024-02-21T12:23:38;11.40;99.90
6110;DHT22;3085;49.444;11.054;2024-02-21T12:26:04;11.50;99.90
6110;DHT22;3085;49.444;11.054;2024-02-21T12:28:31;11.40;99.90
6110;DHT22;3085;49.444;11.054;2024-02-21T12:30:59;11.40;99.90
6110;DHT22;3085;49.444;11.054;2024-02-21T12:33:26;11.50;99.90
6110;DHT22;3085;49.444;11.054;2024-02-21T12:35:53;11.60;99.90
6110;DHT22;3085;49.444;11.054;2024-02-21T12:38:20;11.70;99.90
6110;DHT22;3085;49.444;11.054;2024-02-21T12:40:47;11.70;99.90
6110;DHT22;3085;49.444;11.054;2024-02-21T12:43:13;11.70;99.90
6110;DHT22;3085;49.444;11.054;2024-02-21T12:45:40;11.80;99.90
6110;DHT22;3085;49.444;11.054;2024-02-21T12:48:08;11.80;99.90
6110;DHT22;3085;49.444;11.054;2024-02-21T12:50:35;11.70;99.90
6110;DHT22;3085;49.444;11.054;2024-02-21T12:53:01;11.80;99.90
6110;DHT22;3085;49.444;11.054;2024-02-21T12:55:28;11.80;99.90
6110;DHT22;3085;49.444;11.054;2024-02-21T12:57:57;11.70;99.90
6110;DHT22;3085;49.444;11.054;2024-02-21T13:00:29;11.80;99.90
6110;DHT22;3085;49.444;11.054;2024-02-21T13:02:56;11.90;99.90
6110;DHT22;3085;49.444;11.054;2024-02-21T13:05:24;11.90;99.90
6110;DHT22;3085;49.444;11.054;2024-02-21T13:07:51;12.00;99.90
6110;DHT22;3085;49.444;11.054;2024-02-21T13:10:18;11.90;99.90
6110;DHT22;3085;49.444;11.054;2024-02-21T13:12:45;11.80;99.90
6110;DHT22;3085;49.444;11.054;2024-02-21T13:15:11;11.90;99.90
6110;DHT22;3085;49.444;11.054;2024-02-21T13:17:38;12.00;99.90
6110;DHT22;3085;49.444;11.054;2024-02-21T13:20:05;12.10;99.90
6110;DHT22;3085;49.444;11.054;2024-02-21T13:22:35;12.00;99.90
6110;DHT22;3085;49.444;11.054;2024-02-21T13:25:01;12.10;99.90
6110;DHT22;3085;49.444;11.054;2024-02-21T13:27:28;12.10;99.90
6110;DHT22;3085;49.444;11.054;2024-02-21T13:29:55;12.10;99.90
6110;DHT22;3085;49.444;11.054;2024-02-21T13:32:21;12.10;99.90
6110;DHT22;3085;49.444;11.054;2024-02-21T13:34:48;12.20;99.90
6110;DHT22;3085;49.444;11.054;2024-02-21T13:37:15;12.20;99.90
6110;DHT22;3085;49.444;11.054;2024-02-21T13:39:43;12.20;99.90
6110;DHT22;3085;49.444;11.054;2024-02-21T13:42:12;12.20;99.90
6110;DHT22;3085;49.444;11.054;2024-02-21T13:44:39;12.20;99.90
6110;DHT22;3085;49.444;11.054;2024-02-21T13:47:06;12.10;99.90
6110;DHT22;3085;49.444;11.054;2024-02-21T13:49:33;12.10;99.90
6110;DHT22;3085;49.444;11.054;2024-02-21T13:52:01;12.10;99.90
6110;DHT22;3085;49.444;11.054;2024-02-21T13:54:27;12.10;99.90
6110;DHT22;3085;49.444;11.054;2024-02-21T13:56:55;12.00;99.90
6110;DHT22;3085;49.444;11.054;2024-02-21T13:59:22;12.00;99.90
6110;DHT22;3085;49.444;11.054;2024-02-21T14:01:49;12.00;99.90
6110;DHT22;3085;49.444;11.054;2024-02-21T14:04:16;12.10;99.90
6110;DHT22;3085;49.444;11.054;2024-02-21T14:06:42;12.10;99.90
6110;DHT22;3085;49.444;11.054;2024-02-21T14:09:09;12.10;99.90
6110;DHT22;3085;49.444;11.054;2024-02-21T14:11:36;12.20;99.90
6110;DHT22;3085;49.444;11.054;2024-02-21T14:14:06;12.20;99.90
6110;DHT22;3085;49.444;11.054;2024-02-21T14:16:33;12.30;99.90
6110;DHT22;3085;49.444;11.054;2024-02-21T14:19:00;12.20;99.90
6110;DHT22;3085;49.444;11.054;2024-02-21T14:21:27;12.10;99.90
6110;DHT22;3085;49.444;11.054;2024-02-21T14:23:54;12.10;99.90
6110;DHT22;3085;49.444;11.054;2024-02-21T14:26:22;12.20;99.90
6110;DHT22;3085;49.444;11.054;2024-02-21T14:28:48;12.20;99.90
6110;DHT22;3085;49.444;11.054;2024-02-21T14:31:16;12.30;99.90
6110;DHT22;3085;49.444;11.054;2024-02-21T14:33:43;12.20;99.90
6110;DHT22;3085;49.444;11.054;2024-02-21T14:36:11;12.20;99.90
6110;DHT22;3085;49.444;11.054;2024-02-21T14:38:38;12.10;99.90
6110;DHT22;3085;49.444;11.054;2024-02-21T14:41:05;12.10;99.90
6110;DHT22;3085;49.444;11.054;2024-02-21T14:43:32;12.00;99.90
6110;DHT22;3085;49.444;11.054;2024-02-21T14:46:00;12.10;99.90
6110;DHT22;3085;49.444;11.054;2024-02-21T14:48:29;12.10;99.90
6110;DHT22;3085;49.444;11.054;2024-02-21T14:50:57;12.00;99.90
6110;DHT22;3085;49.444;11.054;2024-02-21T14:53:24;12.00;99.90
6110;DHT22;3085;49.444;11.054;2024-02-21T14:55:50;12.00;99.90
6110;DHT22;3085;49.444;11.054;2024-02-21T14:58:17;12.00;99.90
6110;DHT22;3085;49.444;11.054;2024-02-21T15:00:45;12.10;99.90
6110;DHT22;3085;49.444;11.054;2024-02-21T15:03:12;12.10;99.90
6110;DHT22;3085;49.444;11.054;2024-02-21T15:05:42;12.00;99.90
6110;DHT22;3085;49.444;11.054;2024-02-21T15:08:08;12.10;99.90
6110;DHT22;3085;49.444;11.054;2024-02-21T15:10:35;12.00;99.90
6110;DHT22;3085;49.444;11.054;2024-02-21T15:13:02;12.00;99.90
6110;DHT22;3085;49.444;11.054;2024-02-21T15:15:29;12.00;99.90
6110;DHT22;3085;49.444;11.054;2024-02-21T15:17:56;11.90;99.90
6110;DHT22;3085;49.444;11.054;2024-02-21T15:20:23;11.90;99.90
6110;DHT22;3085;49.444;11.054;2024-02-21T15:22:52;11.90;99.90
6110;DHT22;3085;49.444;11.054;2024-02-21T15:25:18;11.90;99.90
6110;DHT22;3085;49.444;11.054;2024-02-21T15:27:46;11.90;99.90
6110;DHT22;3085;49.444;11.054;2024-02-21T15:30:13;11.90;99.90
6110;DHT22;3085;49.444;11.054;2024-02-21T15:32:41;11.90;99.90
6110;DHT22;3085;49.444;11.054;2024-02-21T15:35:09;11.90;99.90
6110;DHT22;3085;49.444;11.054;2024-02-21T15:37:36;11.90;99.90
6110;DHT22;3085;49.444;11.054;2024-02-21T15:40:05;11.80;99.90
6110;DHT22;3085;49.444;11.054;2024-02-21T15:42:33;11.80;99.90
6110;DHT22;3085;49.444;11.054;2024-02-21T15:45:00;11.80;99.90
6110;DHT22;3085;49.444;11.054;2024-02-21T15:47:30;11.60;99.90
6110;DHT22;3085;49.444;11.054;2024-02-21T15:49:57;11.80;99.90
6110;DHT22;3085;49.444;11.054;2024-02-21T15:52:25;11.60;99.90
6110;DHT22;3085;49.444;11.054;2024-02-21T15:54:52;11.70;99.90
6110;DHT22;3085;49.444;11.054;2024-02-21T15:57:20;11.70;99.90
6110;DHT22;3085;49.444;11.054;2024-02-21T15:59:48;11.70;99.90